createdAt,value
2023-06-20T00:00:09.837Z,49.20
2023-06-20T00:02:36.462Z,49.20
2023-06-20T00:05:03.033Z,49.20
2023-06-20T00:07:29.555Z,49.20
2023-06-20T00:09:56.073Z,49.10
2023-06-20T00:12:22.604Z,49.20
2023-06-20T00:14:49.119Z,49.20
2023-06-20T00:17:15.631Z,49.20
2023-06-20T00:19:42.150Z,49.20
2023-06-20T00:22:08.676Z,49.20
2023-06-20T00:24:35.279Z,49.20
2023-06-20T00:27:01.881Z,49.20
2023-06-20T00:29:29.060Z,49.20
2023-06-20T00:31:55.661Z,49.20
2023-06-20T00:34:22.282Z,49.10
2023-06-20T00:36:48.860Z,49.20
2023-06-20T00:39:15.396Z,49.20
2023-06-20T00:41:41.962Z,49.20
2023-06-20T00:44:08.533Z,49.10
2023-06-20T00:46:35.129Z,49.20
2023-06-20T00:49:01.703Z,49.20
2023-06-20T00:51:28.205Z,49.10
2023-06-20T00:53:54.709Z,49.20
2023-06-20T00:56:21.214Z,49.10
2023-06-20T00:58:47.757Z,49.20
2023-06-20T01:01:14.328Z,49.20
2023-06-20T01:03:40.988Z,49.20
2023-06-20T01:06:07.676Z,49.20
2023-06-20T01:08:34.224Z,49.20
2023-06-20T01:11:00.743Z,49.20
2023-06-20T01:13:27.263Z,49.20
2023-06-20T01:15:53.829Z,49.20
2023-06-20T01:18:20.365Z,49.20
2023-06-20T01:20:46.870Z,49.20
2023-06-20T01:23:13.402Z,49.20
2023-06-20T01:25:39.924Z,49.20
2023-06-20T01:28:06.434Z,49.20
2023-06-20T01:30:32.944Z,49.20
2023-06-20T01:32:59.652Z,49.10
2023-06-20T01:35:26.367Z,49.20
2023-06-20T01:37:53.094Z,49.10
2023-06-20T01:40:19.620Z,49.20
2023-06-20T01:42:46.127Z,49.10
2023-06-20T01:45:12.658Z,49.20
2023-06-20T01:47:39.260Z,49.20
2023-06-20T01:50:05.787Z,49.10
2023-06-20T01:52:32.309Z,49.20
2023-06-20T01:54:58.988Z,49.10
2023-06-20T01:57:25.583Z,49.20
2023-06-20T01:59:52.206Z,49.20
2023-06-20T02:02:18.779Z,49.20
2023-06-20T02:04:45.335Z,49.20
2023-06-20T02:07:11.857Z,49.20
2023-06-20T02:09:38.367Z,49.20
2023-06-20T02:12:04.891Z,49.20
2023-06-20T02:14:31.445Z,49.30
2023-06-20T02:16:58.020Z,49.30
2023-06-20T02:19:24.551Z,49.20
2023-06-20T02:21:51.127Z,49.20
2023-06-20T02:24:17.669Z,49.30
2023-06-20T02:26:44.203Z,49.40
2023-06-20T02:29:10.754Z,49.30
2023-06-20T02:31:37.330Z,49.30
2023-06-20T02:34:03.905Z,49.30
2023-06-20T02:36:30.419Z,49.40
2023-06-20T02:38:56.958Z,49.30
2023-06-20T02:41:23.486Z,49.30
2023-06-20T02:43:50.041Z,49.30
2023-06-20T02:46:16.637Z,49.30
2023-06-20T02:48:43.202Z,49.40
2023-06-20T02:51:09.768Z,49.40
2023-06-20T02:53:36.293Z,49.40
2023-06-20T02:56:02.847Z,49.50
2023-06-20T02:58:29.397Z,49.50
2023-06-20T03:00:55.946Z,49.50
2023-06-20T03:03:22.570Z,49.50
2023-06-20T03:05:49.247Z,49.50
2023-06-20T03:08:15.776Z,49.50
2023-06-20T03:10:43.733Z,49.60
2023-06-20T03:13:10.252Z,49.50
2023-06-20T03:15:36.874Z,49.50
2023-06-20T03:18:07.801Z,49.50
2023-06-20T03:20:34.304Z,49.50
2023-06-20T03:23:00.825Z,49.50
2023-06-20T03:25:27.715Z,49.50
2023-06-20T03:27:54.411Z,49.50
2023-06-20T03:30:20.939Z,49.50
2023-06-20T03:32:47.544Z,49.50
2023-06-20T03:35:14.087Z,49.60
2023-06-20T03:37:40.594Z,49.60
2023-06-20T03:40:07.151Z,49.70
2023-06-20T03:42:33.725Z,49.60
2023-06-20T03:45:00.269Z,49.60
2023-06-20T03:47:26.846Z,49.60
2023-06-20T03:49:53.482Z,49.60
2023-06-20T03:52:19.988Z,49.60
2023-06-20T03:54:46.555Z,50.20
2023-06-20T03:57:13.069Z,49.60
2023-06-20T03:59:39.586Z,49.60
2023-06-20T04:02:06.133Z,49.60
2023-06-20T04:04:32.706Z,49.60
2023-06-20T04:06:59.237Z,49.70
2023-06-20T04:09:25.758Z,49.70
2023-06-20T04:11:52.309Z,49.70
2023-06-20T04:14:18.835Z,49.80
2023-06-20T04:16:45.374Z,49.80
2023-06-20T04:19:11.902Z,49.80
2023-06-20T04:21:38.413Z,49.80
2023-06-20T04:24:07.792Z,49.80
2023-06-20T04:26:34.377Z,49.80
2023-06-20T04:29:00.919Z,49.80
2023-06-20T04:31:27.459Z,49.80
2023-06-20T04:33:53.985Z,49.70
2023-06-20T04:36:20.523Z,49.80
2023-06-20T04:38:47.045Z,49.80
2023-06-20T04:41:13.565Z,49.80
2023-06-20T04:43:40.084Z,49.90
2023-06-20T04:46:06.627Z,49.90
2023-06-20T04:48:33.253Z,49.90
2023-06-20T04:50:59.873Z,49.80
2023-06-20T04:53:26.422Z,49.80
2023-06-20T04:55:52.940Z,49.80
2023-06-20T04:58:19.476Z,49.80
2023-06-20T05:00:45.987Z,49.80
2023-06-20T05:03:12.509Z,49.90
2023-06-20T05:05:39.069Z,49.90
2023-06-20T05:08:05.592Z,49.90
2023-06-20T05:10:32.105Z,49.90
2023-06-20T05:12:58.655Z,49.90
2023-06-20T05:15:25.227Z,49.90
2023-06-20T05:17:51.836Z,50.00
2023-06-20T05:20:18.390Z,50.00
2023-06-20T05:22:44.930Z,50.00
2023-06-20T05:25:13.791Z,50.00
2023-06-20T05:27:40.332Z,50.00
2023-06-20T05:30:06.866Z,50.00
2023-06-20T05:32:33.659Z,50.00
2023-06-20T05:35:00.319Z,50.00
2023-06-20T05:37:26.846Z,50.10
2023-06-20T05:39:53.392Z,50.00
2023-06-20T05:42:25.854Z,50.00
2023-06-20T05:44:52.398Z,50.00
2023-06-20T05:47:19.079Z,50.00
2023-06-20T05:49:45.658Z,50.00
2023-06-20T05:52:12.182Z,50.00
2023-06-20T05:54:38.738Z,50.00
2023-06-20T05:57:05.256Z,50.00
2023-06-20T05:59:31.783Z,50.00
2023-06-20T06:01:59.041Z,50.00
2023-06-20T06:04:25.744Z,50.00
2023-06-20T06:06:52.328Z,50.00
2023-06-20T06:09:18.867Z,50.00
2023-06-20T06:11:45.405Z,50.00
2023-06-20T06:14:11.908Z,50.00
2023-06-20T06:16:38.449Z,50.00
2023-06-20T06:19:04.968Z,50.00
2023-06-20T06:21:31.505Z,50.00
2023-06-20T06:23:58.094Z,50.00
2023-06-20T06:26:24.648Z,50.00
2023-06-20T06:28:51.170Z,50.00
2023-06-20T06:31:17.731Z,50.00
2023-06-20T06:33:44.290Z,50.00
2023-06-20T06:36:10.833Z,50.00
2023-06-20T06:38:37.505Z,50.00
2023-06-20T06:41:04.122Z,50.00
2023-06-20T06:43:30.649Z,50.00
2023-06-20T06:45:57.197Z,50.00
2023-06-20T06:48:23.725Z,50.00
2023-06-20T06:50:50.284Z,50.00
2023-06-20T06:53:16.799Z,50.00
2023-06-20T06:55:43.342Z,49.90
2023-06-20T06:58:09.874Z,49.90
2023-06-20T07:00:37.944Z,50.00
2023-06-20T07:03:04.638Z,50.00
2023-06-20T07:05:31.318Z,49.90
2023-06-20T07:07:57.838Z,50.00
2023-06-20T07:10:24.354Z,49.90
2023-06-20T07:12:56.060Z,49.90
2023-06-20T07:15:22.734Z,49.90
2023-06-20T07:17:49.435Z,49.90
2023-06-20T07:20:16.002Z,49.90
2023-06-20T07:22:42.522Z,49.90
2023-06-20T07:25:09.051Z,49.90
2023-06-20T07:27:35.577Z,50.00
2023-06-20T07:30:07.976Z,49.90
2023-06-20T07:32:34.541Z,49.90
2023-06-20T07:35:01.128Z,49.90
2023-06-20T07:37:27.676Z,49.90
2023-06-20T07:39:54.211Z,49.90
2023-06-20T07:42:20.759Z,49.90
2023-06-20T07:44:47.314Z,49.90
2023-06-20T07:47:13.975Z,49.90
2023-06-20T07:49:41.497Z,49.90
2023-06-20T07:52:13.990Z,49.80
2023-06-20T07:54:40.525Z,49.80
2023-06-20T07:57:07.073Z,49.70
2023-06-20T07:59:33.597Z,49.60
2023-06-20T08:02:00.230Z,49.60
2023-06-20T08:04:26.813Z,49.50
2023-06-20T08:06:53.342Z,49.40
2023-06-20T08:09:19.881Z,49.40
2023-06-20T08:11:46.418Z,49.40
2023-06-20T08:14:12.955Z,49.40
2023-06-20T08:16:44.074Z,49.40
2023-06-20T08:19:10.638Z,49.30
2023-06-20T08:21:37.175Z,49.20
2023-06-20T08:24:03.764Z,49.20
2023-06-20T08:26:32.001Z,49.30
2023-06-20T08:28:58.524Z,49.30
2023-06-20T08:31:25.093Z,49.30
2023-06-20T08:33:51.719Z,49.20
2023-06-20T08:36:18.233Z,49.20
2023-06-20T08:38:44.772Z,49.30
2023-06-20T08:41:13.977Z,49.40
2023-06-20T08:43:40.531Z,49.30
2023-06-20T08:46:07.073Z,49.30
2023-06-20T08:48:33.610Z,49.30
2023-06-20T08:51:01.988Z,49.30
2023-06-20T08:53:28.583Z,49.30
2023-06-20T08:55:55.131Z,49.30
2023-06-20T08:58:26.023Z,49.40
2023-06-20T09:00:52.562Z,49.40
2023-06-20T09:03:19.233Z,49.40
2023-06-20T09:05:45.822Z,49.50
2023-06-20T09:08:12.332Z,49.50
2023-06-20T09:10:38.854Z,49.40
2023-06-20T09:13:05.625Z,49.60
2023-06-20T09:15:32.216Z,49.50
2023-06-20T09:17:58.948Z,49.60
2023-06-20T09:20:25.965Z,49.50
2023-06-20T09:22:52.735Z,49.60
2023-06-20T09:25:19.256Z,49.60
2023-06-20T09:27:45.779Z,49.60
2023-06-20T09:30:14.081Z,49.60
2023-06-20T09:32:40.634Z,49.60
2023-06-20T09:35:07.193Z,49.50
2023-06-20T09:37:33.713Z,49.50
2023-06-20T09:40:00.251Z,49.60
2023-06-20T09:42:26.780Z,49.60
2023-06-20T09:44:53.396Z,49.60
2023-06-20T09:47:19.968Z,49.60
2023-06-20T09:49:46.521Z,49.70
2023-06-20T09:52:13.042Z,49.60
2023-06-20T09:54:39.562Z,49.70
2023-06-20T09:57:06.095Z,49.70
2023-06-20T09:59:38.082Z,49.80
2023-06-20T10:02:04.606Z,49.80
2023-06-20T10:04:31.142Z,49.70
2023-06-20T10:06:57.815Z,50.00
2023-06-20T10:09:24.323Z,49.90
2023-06-20T10:11:50.853Z,49.90
2023-06-20T10:14:17.394Z,50.00
2023-06-20T10:16:43.956Z,50.00
2023-06-20T10:19:10.496Z,50.00
2023-06-20T10:21:37.064Z,50.10
2023-06-20T10:24:03.686Z,50.00
2023-06-20T10:26:30.290Z,50.10
2023-06-20T10:28:56.816Z,50.20
2023-06-20T10:31:23.389Z,50.20
2023-06-20T10:33:49.953Z,50.40
2023-06-20T10:36:16.487Z,50.30
2023-06-20T10:38:45.387Z,50.30
2023-06-20T10:41:12.263Z,50.60
2023-06-20T10:43:38.806Z,50.50
2023-06-20T10:46:05.394Z,50.60
2023-06-20T10:48:31.923Z,50.30
2023-06-20T10:50:58.436Z,50.60
2023-06-20T10:53:24.966Z,50.60
2023-06-20T10:55:51.525Z,50.60
2023-06-20T10:58:31.968Z,50.70
2023-06-20T11:00:59.973Z,50.70
2023-06-20T11:03:26.613Z,50.80
2023-06-20T11:05:53.270Z,50.60
2023-06-20T11:08:19.837Z,50.80
2023-06-20T11:10:46.376Z,51.10
2023-06-20T11:13:12.961Z,51.00
2023-06-20T11:15:39.522Z,51.10
2023-06-20T11:18:09.296Z,51.20
2023-06-20T11:20:37.020Z,51.10
2023-06-20T11:23:03.567Z,51.20
2023-06-20T11:25:30.078Z,51.20
2023-06-20T11:27:56.637Z,51.30
2023-06-20T11:30:23.411Z,51.20
2023-06-20T11:32:50.155Z,51.50
2023-06-20T11:35:16.685Z,51.40
2023-06-20T11:37:43.224Z,51.40
2023-06-20T11:40:09.740Z,51.70
2023-06-20T11:42:36.270Z,51.60
2023-06-20T11:45:02.802Z,51.70
2023-06-20T11:47:29.345Z,52.00
2023-06-20T11:49:55.873Z,51.70
2023-06-20T11:52:22.385Z,52.60
2023-06-20T11:54:48.905Z,52.10
2023-06-20T11:57:15.431Z,52.20
2023-06-20T11:59:41.958Z,51.80
2023-06-20T12:02:08.556Z,52.10
2023-06-20T12:04:35.283Z,52.10
2023-06-20T12:07:01.913Z,52.40
2023-06-20T12:09:28.464Z,52.60
2023-06-20T12:11:55.002Z,52.50
2023-06-20T12:14:21.556Z,52.60
2023-06-20T12:16:48.069Z,52.70
2023-06-20T12:19:14.611Z,52.90
2023-06-20T12:21:41.138Z,52.60
2023-06-20T12:24:07.716Z,52.70
2023-06-20T12:26:34.291Z,52.90
2023-06-20T12:29:00.817Z,52.90
2023-06-20T12:31:27.437Z,52.80
2023-06-20T12:33:54.035Z,53.10
2023-06-20T12:36:20.581Z,53.10
2023-06-20T12:38:47.113Z,53.30
2023-06-20T12:41:13.625Z,53.30
2023-06-20T12:43:40.172Z,53.30
2023-06-20T12:46:06.721Z,53.30
2023-06-20T12:48:33.288Z,53.50
2023-06-20T12:50:59.800Z,53.10
2023-06-20T12:53:26.294Z,53.20
2023-06-20T12:58:43.281Z,53.50
2023-06-20T13:01:09.910Z,53.90
2023-06-20T13:03:36.538Z,54.00
2023-06-20T13:06:03.077Z,54.20
2023-06-20T13:08:29.606Z,54.20
2023-06-20T13:10:56.158Z,54.40
2023-06-20T13:13:22.666Z,54.40
2023-06-20T13:15:49.255Z,54.50
2023-06-20T13:18:15.801Z,54.40
2023-06-20T13:20:42.333Z,54.50
2023-06-20T13:23:08.848Z,54.40
2023-06-20T13:25:35.383Z,54.50
2023-06-20T13:28:01.910Z,54.50
2023-06-20T13:30:28.749Z,54.50
2023-06-20T13:33:00.256Z,54.60
2023-06-20T13:35:26.846Z,54.60
2023-06-20T13:37:53.365Z,54.70
2023-06-20T13:40:19.906Z,54.80
2023-06-20T13:42:46.434Z,54.80
2023-06-20T13:45:12.957Z,54.90
2023-06-20T13:47:39.551Z,54.90
2023-06-20T13:50:06.098Z,55.00
2023-06-20T13:52:32.658Z,54.80
2023-06-20T13:54:59.187Z,54.80
2023-06-20T13:57:25.740Z,54.80
2023-06-20T13:59:52.381Z,54.80
2023-06-20T14:02:18.991Z,54.90
2023-06-20T14:04:45.553Z,55.00
2023-06-20T14:07:12.079Z,55.10
2023-06-20T14:09:38.585Z,55.10
2023-06-20T14:12:05.220Z,55.20
2023-06-20T14:14:31.742Z,55.10
2023-06-20T14:16:58.485Z,55.10
2023-06-20T14:19:25.037Z,55.00
2023-06-20T14:21:51.566Z,54.90
2023-06-20T14:24:18.145Z,55.00
2023-06-20T14:26:44.810Z,54.90
2023-06-20T14:29:11.345Z,54.80
2023-06-20T14:31:37.997Z,54.70
2023-06-20T14:34:04.612Z,54.80
2023-06-20T14:36:31.121Z,54.60
2023-06-20T14:38:57.667Z,54.60
2023-06-20T14:41:24.220Z,54.50
2023-06-20T14:43:50.771Z,54.60
2023-06-20T14:46:17.348Z,54.60
2023-06-20T14:48:43.910Z,54.60
2023-06-20T14:51:10.452Z,54.60
2023-06-20T14:53:36.967Z,54.50
2023-06-20T14:56:08.535Z,54.60
2023-06-20T14:58:35.065Z,54.60
2023-06-20T15:01:01.591Z,54.60
2023-06-20T15:03:28.272Z,54.60
2023-06-20T15:05:56.986Z,54.70
2023-06-20T15:08:24.211Z,54.70
2023-06-20T15:10:50.733Z,54.70
2023-06-20T15:13:17.267Z,54.70
2023-06-20T15:15:43.786Z,55.30
2023-06-20T15:18:10.366Z,54.70
2023-06-20T15:20:36.943Z,54.60
2023-06-20T15:23:03.490Z,54.60
2023-06-20T15:25:30.067Z,54.60
2023-06-20T15:27:56.596Z,54.60
2023-06-20T15:30:23.195Z,54.60
2023-06-20T15:32:49.787Z,54.60
2023-06-20T15:35:16.332Z,54.60
2023-06-20T15:37:42.869Z,54.60
2023-06-20T15:40:09.385Z,54.60
2023-06-20T15:42:35.936Z,54.70
2023-06-20T15:45:02.472Z,54.70
2023-06-20T15:47:29.058Z,54.60
2023-06-20T15:49:55.597Z,54.60
2023-06-20T15:52:22.104Z,54.70
2023-06-20T15:54:48.678Z,54.60
2023-06-20T15:57:15.224Z,54.70
2023-06-20T15:59:41.804Z,54.70
2023-06-20T16:02:08.335Z,54.70
2023-06-20T16:04:34.907Z,54.70
2023-06-20T16:07:01.405Z,54.70
2023-06-20T16:09:27.945Z,54.70
2023-06-20T16:11:54.478Z,54.70
2023-06-20T16:14:21.060Z,54.70
2023-06-20T16:16:47.576Z,54.80
2023-06-20T16:19:14.130Z,54.80
2023-06-20T16:21:40.687Z,54.80
2023-06-20T16:24:07.246Z,54.80
2023-06-20T16:26:33.782Z,54.80
2023-06-20T16:29:00.321Z,54.80
2023-06-20T16:31:26.873Z,54.80
2023-06-20T16:33:53.425Z,54.90
2023-06-20T16:36:19.948Z,54.90
2023-06-20T16:38:46.477Z,54.90
2023-06-20T16:41:13.001Z,54.90
2023-06-20T16:43:39.561Z,54.90
2023-06-20T16:46:06.091Z,54.90
2023-06-20T16:48:32.691Z,54.90
2023-06-20T16:50:59.229Z,54.90
2023-06-20T16:53:25.754Z,54.90
2023-06-20T16:55:52.365Z,54.90
2023-06-20T16:58:18.885Z,54.90
2023-06-20T17:00:45.435Z,54.90
2023-06-20T17:03:12.017Z,54.90
2023-06-20T17:05:38.599Z,55.60
2023-06-20T17:08:05.129Z,55.00
2023-06-20T17:10:31.675Z,55.00
2023-06-20T17:13:02.527Z,55.00
2023-06-20T17:15:29.074Z,55.00
2023-06-20T17:17:55.687Z,55.00
2023-06-20T17:20:22.285Z,55.00
2023-06-20T17:22:48.802Z,55.00
2023-06-20T17:25:15.351Z,55.00
2023-06-20T17:27:41.848Z,55.00
2023-06-20T17:30:08.412Z,55.10
2023-06-20T17:32:35.033Z,55.00
2023-06-20T17:35:01.625Z,55.00
2023-06-20T17:37:28.163Z,55.00
2023-06-20T17:39:54.689Z,55.00
2023-06-20T17:42:21.213Z,55.00
2023-06-20T17:44:47.744Z,54.90
2023-06-20T17:47:14.256Z,54.90
2023-06-20T17:49:40.789Z,54.90
2023-06-20T17:52:07.320Z,54.90
2023-06-20T17:54:33.860Z,55.40
2023-06-20T17:57:00.414Z,54.80
2023-06-20T17:59:26.957Z,54.70
2023-06-20T18:01:53.540Z,54.60
2023-06-20T18:04:20.113Z,54.70
2023-06-20T18:06:46.695Z,54.60
2023-06-20T18:09:13.212Z,54.60
2023-06-20T18:11:39.746Z,54.60
2023-06-20T18:14:06.306Z,54.70
2023-06-20T18:16:32.884Z,54.50
2023-06-20T18:18:59.454Z,54.50
2023-06-20T18:21:25.979Z,54.50
2023-06-20T18:23:52.497Z,54.50
2023-06-20T18:26:19.037Z,54.50
2023-06-20T18:28:45.540Z,54.50
2023-06-20T18:31:12.093Z,54.50
2023-06-20T18:33:38.598Z,54.40
2023-06-20T18:36:05.098Z,54.40
2023-06-20T18:38:31.618Z,54.40
2023-06-20T18:40:58.146Z,54.50
2023-06-20T18:43:24.670Z,54.40
2023-06-20T18:45:51.197Z,54.40
2023-06-20T18:48:17.731Z,54.40
2023-06-20T18:50:44.301Z,54.40
2023-06-20T18:53:10.876Z,54.50
2023-06-20T18:55:37.414Z,54.50
2023-06-20T18:58:03.973Z,54.50
2023-06-20T19:00:30.536Z,54.40
2023-06-20T19:02:58.251Z,54.50
2023-06-20T19:05:24.890Z,54.50
2023-06-20T19:07:51.446Z,54.50
2023-06-20T19:10:18.004Z,54.60
2023-06-20T19:12:44.543Z,54.70
2023-06-20T19:15:11.096Z,54.70
2023-06-20T19:17:38.855Z,54.80
2023-06-20T19:20:07.175Z,54.90
2023-06-20T19:22:33.729Z,55.00
2023-06-20T19:25:00.274Z,55.10
2023-06-20T19:27:26.831Z,55.20
2023-06-20T19:29:53.364Z,55.20
2023-06-20T19:32:19.929Z,55.30
2023-06-20T19:34:49.194Z,55.30
2023-06-20T19:37:16.617Z,55.40
2023-06-20T19:39:43.152Z,55.40
2023-06-20T19:42:09.670Z,55.30
2023-06-20T19:44:38.557Z,55.40
2023-06-20T19:47:05.085Z,55.50
2023-06-20T19:49:31.656Z,55.50
2023-06-20T19:51:58.187Z,55.50
2023-06-20T19:54:24.700Z,55.60
2023-06-20T19:56:53.173Z,55.70
2023-06-20T19:59:20.798Z,55.70
2023-06-20T20:01:47.422Z,55.60
2023-06-20T20:04:14.066Z,55.70
2023-06-20T20:06:40.740Z,55.80
2023-06-20T20:09:07.299Z,55.80
2023-06-20T20:11:33.815Z,55.80
2023-06-20T20:14:00.419Z,55.80
2023-06-20T20:16:27.025Z,55.90
2023-06-20T20:18:53.621Z,55.90
2023-06-20T20:21:20.157Z,55.80
2023-06-20T20:23:50.624Z,55.90
2023-06-20T20:26:17.160Z,55.80
2023-06-20T20:28:43.746Z,55.90
2023-06-20T20:31:10.302Z,55.90
2023-06-20T20:33:36.848Z,55.90
2023-06-20T20:36:03.381Z,56.00
2023-06-20T20:38:29.924Z,56.00
2023-06-20T20:40:56.450Z,56.10
2023-06-20T20:43:22.984Z,56.10
2023-06-20T20:45:50.462Z,56.10
2023-06-20T20:48:17.046Z,56.10
2023-06-20T20:50:43.575Z,56.10
2023-06-20T20:53:10.105Z,56.10
2023-06-20T20:55:36.637Z,56.10
2023-06-20T20:58:03.164Z,56.20
2023-06-20T21:00:29.847Z,56.20
2023-06-20T21:02:56.523Z,56.20
2023-06-20T21:05:23.069Z,56.20
2023-06-20T21:07:49.590Z,56.30
2023-06-20T21:10:16.136Z,56.20
2023-06-20T21:12:42.658Z,56.20
2023-06-20T21:15:11.448Z,56.30
2023-06-20T21:17:39.794Z,56.30
2023-06-20T21:20:06.375Z,56.20
2023-06-20T21:22:32.911Z,56.20
2023-06-20T21:24:59.437Z,56.40
2023-06-20T21:27:25.966Z,56.30
2023-06-20T21:29:52.502Z,56.40
2023-06-20T21:32:19.029Z,56.60
2023-06-20T21:34:45.608Z,56.60
2023-06-20T21:37:12.167Z,56.60
2023-06-20T21:39:38.718Z,56.60
2023-06-20T21:42:05.243Z,56.60
2023-06-20T21:44:31.801Z,56.50
2023-06-20T21:46:58.368Z,56.80
2023-06-20T21:49:24.916Z,56.90
2023-06-20T21:51:51.452Z,56.90
2023-06-20T21:54:17.992Z,56.60
2023-06-20T21:56:44.494Z,56.90
2023-06-20T21:59:11.031Z,56.70
2023-06-20T22:01:37.555Z,57.00
2023-06-20T22:04:04.264Z,56.90
2023-06-20T22:06:30.880Z,56.40
2023-06-20T22:08:57.404Z,56.70
2023-06-20T22:11:23.930Z,56.60
2023-06-20T22:13:50.460Z,56.40
2023-06-20T22:16:20.767Z,56.20
2023-06-20T22:18:47.348Z,56.30
2023-06-20T22:21:13.950Z,56.20
2023-06-20T22:23:40.470Z,56.10
2023-06-20T22:26:08.755Z,56.10
2023-06-20T22:28:35.270Z,55.90
2023-06-20T22:31:01.816Z,55.90
2023-06-20T22:33:28.339Z,55.70
2023-06-20T22:35:54.884Z,55.80
2023-06-20T22:38:21.411Z,55.90
2023-06-20T22:40:47.962Z,55.80
2023-06-20T22:43:14.507Z,55.90
2023-06-20T22:45:41.095Z,55.90
2023-06-20T22:48:07.709Z,55.90
2023-06-20T22:50:34.337Z,56.00
2023-06-20T22:53:00.843Z,55.90
2023-06-20T22:55:27.380Z,55.90
2023-06-20T22:57:53.873Z,55.90
2023-06-20T23:00:20.385Z,55.80
2023-06-20T23:02:47.041Z,55.90
2023-06-20T23:05:13.623Z,55.90
2023-06-20T23:07:40.153Z,56.00
2023-06-20T23:10:06.690Z,56.10
2023-06-20T23:12:33.199Z,56.10
2023-06-20T23:14:59.733Z,56.00
2023-06-20T23:17:26.265Z,56.20
2023-06-20T23:19:52.824Z,56.00
2023-06-20T23:22:19.330Z,56.10
2023-06-20T23:24:45.935Z,56.10
2023-06-20T23:27:12.661Z,56.10
2023-06-20T23:29:39.181Z,56.30
2023-06-20T23:32:05.726Z,56.30
2023-06-20T23:34:32.271Z,56.20
2023-06-20T23:36:58.829Z,56.30
2023-06-20T23:39:25.372Z,56.30
2023-06-20T23:41:51.892Z,56.40
2023-06-20T23:44:18.421Z,56.40
2023-06-20T23:46:45.012Z,56.40
2023-06-20T23:49:11.613Z,56.40
2023-06-20T23:51:38.173Z,56.40
2023-06-20T23:54:04.820Z,56.50
2023-06-20T23:56:31.363Z,56.40
2023-06-20T23:58:57.858Z,56.40
